Water Valley's Hourly Summary for Friday, August 28, 2026
Hour Temp
(f)
RH
(%)
Solar Rad.
(MJ/m2)
Rainfall
(in)
Wind
(mph)
Battery
(volts)
8/28/2026 12:00 AM 71 87 0 0 0.73 0
8/28/2026 1:00 AM 72 87 0 0 3.98 0
8/28/2026 2:00 AM 71 90 0 0 2.04 0
8/28/2026 3:00 AM 70 87 0 0 0 0
8/28/2026 4:00 AM 69 91 0 0 0 0
8/28/2026 5:00 AM 67 95 0 0 0 0
8/28/2026 6:00 AM 65 95 0 0 0.56 0
8/28/2026 7:00 AM 64 93 0.05 0 0.19 0
8/28/2026 8:00 AM 67 77 0.22 0 0.88 0
8/28/2026 9:00 AM 76 59 0.4 0 0 0
8/28/2026 10:00 AM 83 45 0.57 0 2.7 0
8/28/2026 11:00 AM 87 46 0.7 0 1.75 0
8/28/2026 12:00 PM 90 38 0.8 0 2.07 0
8/28/2026 1:00 PM 90 34 0.87 0 5.65 0
8/28/2026 2:00 PM 93 35 0.89 0 4.97 0
8/28/2026 3:00 PM 91 28 0.81 0 6.2 0
8/28/2026 4:00 PM 96 41 0.11 0 6.02 0
8/28/2026 5:00 PM 93 36 0.43 0 3.49 0
8/28/2026 6:00 PM 93 31 0.24 0 3.69 0
8/28/2026 7:00 PM 93 36 0.06 0 7.17 0
8/28/2026 8:00 PM 90 41 0 0 7.79 0
8/28/2026 9:00 PM 86 48 0 0 6.82 0
8/28/2026 10:00 PM 84 53 0 0 5.96 0
8/28/2026 11:00 PM 81 54 0 0 4.1 0
Data Summary 80 59 6.15 0.00 3.20 0.00